Time;durP1;ratioP1;P1;durP2;ratioP2;P2;SDS_P1;SDS_P2;PMS_P1;PMS_P2;Temp;Humidity;BMP_temperature;BMP_pressure;BME280_temperature;BME280_humidity;BME280_pressure;Samples;Min_cycle;Max_cycle;Signal;HPM_P1;HPM_P2
2022/06/17 15:17:59;;;;;;;82.95;38.13;;;;;;;30.00;25.64;101854.94;5063069;27;96814;-69
2022/06/17 15:20:29;;;;;;;3.65;1.20;;;;;;;32.18;22.50;101851.13;5048600;27;96827;-68
2022/06/17 15:23:08;;;;;;;3.90;1.05;;;;;;;33.37;20.05;101853.13;5047309;27;100992;-69
2022/06/17 15:25:46;;;;;;;1.05;0.88;;;;;;;34.22;19.13;101845.84;5044865;27;101344;-69
2022/06/17 15:28:21;;;;;;;5.30;1.10;;;;;;;34.38;18.66;101851.25;5042383;27;96798;-70
2022/06/17 15:30:47;;;;;;;3.80;1.17;;;;;;;34.27;19.11;101843.41;5039734;27;97105;-69
2022/06/17 15:33:21;;;;;;;3.78;1.40;;;;;;;34.42;18.95;101848.09;5047964;27;99498;-69
2022/06/17 15:35:54;;;;;;;3.30;0.90;;;;;;;34.24;19.00;101842.94;5045587;27;99586;-68
2022/06/17 15:38:28;;;;;;;2.83;1.33;;;;;;;33.98;18.90;101838.63;5041861;27;97704;-68
2022/06/17 15:41:18;;;;;;;2.83;1.02;;;;;;;33.76;18.76;101841.31;5039076;27;97747;-69
2022/06/17 15:43:48;;;;;;;2.20;1.25;;;;;;;33.90;18.90;101835.09;5038124;27;99164;-68
2022/06/17 15:46:15;;;;;;;7.18;1.58;;;;;;;33.32;19.38;101830.03;5042040;27;99216;-68
2022/06/17 15:48:43;;;;;;;4.18;0.98;;;;;;;33.57;19.14;101829.75;5038510;27;97687;-69
2022/06/17 15:51:13;;;;;;;4.05;1.38;;;;;;;34.04;18.93;101828.81;5047052;27;97058;-69
2022/06/17 15:53:41;;;;;;;5.72;1.17;;;;;;;34.21;18.52;101827.69;5046776;27;99232;-69
2022/06/17 15:56:16;;;;;;;3.85;1.35;;;;;;;34.12;18.71;101827.91;5047400;27;99170;-68
2022/06/17 15:58:44;;;;;;;4.07;1.20;;;;;;;34.07;18.74;101825.69;5044075;27;97361;-68
2022/06/17 16:01:18;;;;;;;3.83;0.98;;;;;;;33.58;18.74;101827.84;5043207;27;97292;-70
2022/06/17 16:03:53;;;;;;;5.50;1.27;;;;;;;33.46;19.11;101826.56;5042702;27;99407;-69
2022/06/17 16:06:27;;;;;;;2.10;0.93;;;;;;;33.54;18.91;101819.13;5040924;27;98997;-70
2022/06/17 16:08:54;;;;;;;2.55;1.27;;;;;;;33.56;18.96;101818.94;5047505;27;96803;-69
2022/06/17 16:11:28;;;;;;;1.50;0.90;;;;;;;33.71;18.76;101825.44;5041992;27;97608;-68
2022/06/17 16:13:58;;;;;;;4.22;1.55;;;;;;;33.22;19.15;101828.34;5043419;27;99990;-69
2022/06/17 16:16:34;;;;;;;6.28;3.08;;;;;;;33.28;19.03;101829.50;5033321;27;99158;-69
2022/06/17 16:19:16;;;;;;;4.57;2.30;;;;;;;33.02;18.82;101828.88;5036826;27;99021;-69
2022/06/17 16:21:46;;;;;;;1.45;0.90;;;;;;;32.83;18.71;101832.84;5043069;27;96780;-70
2022/06/17 16:24:34;;;;;;;3.75;0.95;;;;;;;32.77;19.03;101826.19;5041721;27;99705;-69
2022/06/17 16:27:05;;;;;;;2.85;0.95;;;;;;;33.22;18.88;101817.38;5042476;27;101675;-68
2022/06/17 16:29:38;;;;;;;2.83;0.90;;;;;;;33.21;18.94;101818.41;5028664;27;96887;-69
2022/06/17 16:32:07;;;;;;;3.10;1.08;;;;;;;33.33;18.77;101818.03;5024583;27;97056;-69
2022/06/17 16:34:42;;;;;;;4.93;1.40;;;;;;;32.80;18.89;101819.53;5022649;27;99407;-68
2022/06/17 16:37:19;;;;;;;4.80;0.80;;;;;;;32.21;19.22;101815.25;5020495;28;101336;-70
2022/06/17 16:39:46;;;;;;;2.55;1.08;;;;;;;32.94;19.59;101817.97;5032578;28;98876;-69
2022/06/17 16:45:22;;;;;;;3.55;2.58;;;;;;;32.68;19.21;101813.56;5028817;28;97222;-70
2022/06/17 16:47:48;;;;;;;3.53;1.52;;;;;;;32.51;19.40;101813.69;5029612;28;98646;-69
2022/06/17 16:50:17;;;;;;;1.73;1.20;;;;;;;32.46;19.41;101814.22;5028292;27;96743;-70
2022/06/17 16:52:44;;;;;;;6.95;2.83;;;;;;;32.34;19.85;101812.84;5034341;27;96968;-69
2022/06/17 16:55:15;;;;;;;3.97;1.48;;;;;;;32.21;19.94;101812.50;5029293;28;98973;-70
2022/06/17 16:57:42;;;;;;;2.47;1.60;;;;;;;32.23;19.90;101810.47;5022081;28;99855;-69
2022/06/17 17:00:14;;;;;;;3.67;1.63;;;;;;;31.97;19.77;101805.94;5029077;27;97101;-69
2022/06/17 17:02:40;;;;;;;2.63;1.85;;;;;;;31.96;19.88;101801.53;5031878;27;97322;-69
2022/06/17 17:05:09;;;;;;;7.07;3.45;;;;;;;31.94;19.77;101810.91;5030748;28;100844;-68
2022/06/17 17:07:40;;;;;;;2.05;1.67;;;;;;;31.60;19.95;101809.09;5026739;28;98058;-69
2022/06/17 17:10:09;;;;;;;5.30;1.50;;;;;;;31.92;20.05;101802.00;5029745;27;96791;-70
2022/06/17 17:12:36;;;;;;;4.20;1.90;;;;;;;31.83;19.66;101806.63;5025238;27;97550;-70
2022/06/17 17:15:04;;;;;;;3.50;1.67;;;;;;;31.54;19.81;101797.94;5026086;27;98821;-69
2022/06/17 17:17:31;;;;;;;2.55;1.70;;;;;;;31.52;19.96;101797.25;5028399;27;98732;-69
2022/06/17 17:19:57;;;;;;;3.47;2.17;;;;;;;31.41;20.30;101800.28;5022380;27;97005;-69
2022/06/17 17:22:28;;;;;;;3.47;2.15;;;;;;;31.43;20.10;101803.72;5029942;28;96796;-70
2022/06/17 17:25:08;;;;;;;3.10;1.98;;;;;;;31.13;20.33;101803.22;5029282;28;99844;-69
2022/06/17 17:27:35;;;;;;;3.78;2.10;;;;;;;31.04;20.85;101796.00;5027617;28;97884;-69
2022/06/17 17:30:04;;;;;;;2.30;1.77;;;;;;;31.06;20.82;101799.44;5027015;28;96835;-69
2022/06/17 17:32:31;;;;;;;5.75;2.00;;;;;;;31.06;20.90;101799.44;5023383;27;97056;-70
2022/06/17 17:34:58;;;;;;;6.10;1.90;;;;;;;31.14;21.06;101802.22;5024327;28;102065;-68
2022/06/17 17:37:24;;;;;;;3.22;1.23;;;;;;;30.98;21.24;101812.16;5032017;27;100291;-68
2022/06/17 17:39:51;;;;;;;2.33;1.48;;;;;;;30.84;21.47;101802.69;5031996;27;97223;-69
2022/06/17 17:42:19;;;;;;;4.82;2.53;;;;;;;30.93;21.52;101804.44;5028399;27;96837;-69
2022/06/17 17:44:45;;;;;;;3.13;1.92;;;;;;;31.09;21.65;101801.84;5031398;27;98996;-69
2022/06/17 17:47:15;;;;;;;3.05;2.05;;;;;;;30.97;21.33;101802.25;5030434;27;101042;-69
2022/06/17 17:49:43;;;;;;;5.57;3.30;;;;;;;31.05;21.19;101802.34;5028447;28;96756;-68
2022/06/17 17:52:10;;;;;;;10.45;3.88;;;;;;;31.05;21.17;101816.81;5032634;28;96984;-69
2022/06/17 17:54:37;;;;;;;4.45;2.72;;;;;;;30.93;21.07;101809.91;5027625;28;100190;-70
2022/06/17 17:57:05;;;;;;;2.10;1.90;;;;;;;30.73;21.22;101806.53;5030130;28;98012;-68
2022/06/17 17:59:33;;;;;;;7.03;4.40;;;;;;;30.73;21.81;101813.84;5023314;28;97147;-70
2022/06/17 18:02:06;;;;;;;3.53;1.83;;;;;;;30.54;21.79;101809.47;5031522;28;96833;-70
2022/06/17 18:04:34;;;;;;;4.05;1.55;;;;;;;30.61;21.47;101807.81;5034683;27;100352;-69
2022/06/17 18:07:01;;;;;;;2.55;1.30;;;;;;;30.55;21.77;101804.88;5033309;27;98707;-69
2022/06/17 18:09:31;;;;;;;3.55;2.70;;;;;;;30.60;21.55;101797.91;5031359;27;96791;-70
2022/06/17 18:11:57;;;;;;;3.17;1.27;;;;;;;30.39;21.81;101792.78;5027926;27;96844;-69
2022/06/17 18:14:26;;;;;;;1.80;1.42;;;;;;;30.23;21.76;101791.78;5029798;28;98628;-71
2022/06/17 18:16:54;;;;;;;4.55;1.75;;;;;;;30.40;22.24;101799.09;5031689;28;99699;-69
2022/06/17 18:19:22;;;;;;;5.90;1.60;;;;;;;30.51;22.29;101798.88;5036121;27;96973;-69
2022/06/17 18:21:49;;;;;;;1.77;1.20;;;;;;;30.21;22.27;101791.94;5030697;27;96956;-69
2022/06/17 18:24:18;;;;;;;2.63;1.60;;;;;;;30.36;22.43;101794.97;5026422;28;99403;-69
2022/06/17 18:26:47;;;;;;;1.92;1.17;;;;;;;30.35;21.77;101799.56;5035376;27;99080;-69
2022/06/17 18:29:17;;;;;;;2.97;1.30;;;;;;;30.31;21.97;101791.88;5035419;28;96869;-69
2022/06/17 18:31:45;;;;;;;2.58;1.73;;;;;;;30.35;21.97;101793.25;5027062;27;96771;-70
2022/06/17 18:34:16;;;;;;;1.38;1.10;;;;;;;30.30;21.74;101796.47;5033677;28;99101;-69
2022/06/17 18:36:43;;;;;;;3.03;1.20;;;;;;;30.20;22.39;101792.94;5034932;27;99809;-69
2022/06/17 18:39:15;;;;;;;4.97;1.80;;;;;;;30.11;22.41;101796.63;5032732;28;96701;-69
2022/06/17 18:44:26;;;;;;;3.33;1.38;;;;;;;30.17;21.74;101789.69;5032727;27;97217;-69
2022/06/17 18:46:52;;;;;;;3.47;2.72;;;;;;;30.14;21.93;101795.44;5031936;28;98886;-70
2022/06/17 18:49:21;;;;;;;2.33;1.60;;;;;;;30.16;22.02;101787.97;5034369;27;96667;-68
2022/06/17 18:51:47;;;;;;;2.80;1.60;;;;;;;29.79;22.31;101785.38;5031253;27;96815;-69
2022/06/17 18:54:17;;;;;;;3.83;1.85;;;;;;;30.03;22.19;101788.38;5027434;27;99122;-70
2022/06/17 18:56:43;;;;;;;6.97;1.48;;;;;;;30.02;22.60;101792.09;5029656;28;101011;-69
2022/06/17 18:59:12;;;;;;;4.88;1.30;;;;;;;30.04;22.13;101790.94;5027688;27;96785;-69
2022/06/17 19:01:39;;;;;;;3.35;1.35;;;;;;;29.88;22.07;101784.44;5035800;27;97324;-69
2022/06/17 19:04:08;;;;;;;5.00;1.58;;;;;;;29.73;22.40;101784.94;5030514;27;97778;-70
2022/06/17 19:06:36;;;;;;;4.53;1.70;;;;;;;29.85;22.07;101785.63;5027186;27;99669;-68
2022/06/17 19:17:31;;;;;;;3.25;1.60;;;;;;;29.72;22.71;101776.97;5034177;28;97005;-68
2022/06/17 19:20:02;;;;;;;4.70;1.38;;;;;;;29.64;22.38;101777.72;5027640;28;96754;-70
2022/06/17 19:22:32;;;;;;;2.42;1.40;;;;;;;29.63;22.71;101780.59;5035166;28;96671;-68
2022/06/17 19:24:59;;;;;;;5.80;1.77;;;;;;;29.57;22.98;101776.63;5030395;27;99003;-69
2022/06/17 19:27:30;;;;;;;2.28;1.50;;;;;;;29.59;22.27;101769.16;5029046;27;101141;-72
2022/06/17 19:29:57;;;;;;;4.50;1.38;;;;;;;29.59;22.98;101777.34;5028714;27;97427;-72
2022/06/17 19:32:30;;;;;;;3.25;1.52;;;;;;;29.43;22.67;101774.41;5016313;28;96818;-73
2022/06/17 19:34:57;;;;;;;9.07;1.98;;;;;;;29.23;23.69;101779.06;5025391;27;99087;-72
2022/06/17 19:37:24;;;;;;;17.15;2.50;;;;;;;29.19;24.52;101780.38;5021573;28;99194;-72
2022/06/17 19:39:52;;;;;;;4.80;1.77;;;;;;;29.12;24.62;101789.28;5024323;27;96996;-70
2022/06/17 19:42:19;;;;;;;21.02;2.10;;;;;;;28.85;25.15;101782.81;5023157;28;97309;-72
2022/06/17 19:44:47;;;;;;;4.75;1.85;;;;;;;29.02;24.93;101789.31;5031029;27;99162;-73
2022/06/17 19:47:16;;;;;;;8.50;1.77;;;;;;;28.92;24.99;101786.66;5024244;28;99743;-72
2022/06/17 19:49:46;;;;;;;12.60;1.98;;;;;;;28.50;25.78;101788.00;5030152;27;97341;-72
2022/06/17 19:52:22;;;;;;;6.40;1.88;;;;;;;28.51;25.83;101790.56;5030060;27;96905;-71
2022/06/17 19:54:49;;;;;;;6.97;1.65;;;;;;;28.47;25.94;101791.00;5025397;27;99150;-72
2022/06/17 19:57:17;;;;;;;12.02;2.33;;;;;;;28.40;25.85;101792.59;5026700;27;97877;-71
2022/06/17 19:59:45;;;;;;;10.75;2.13;;;;;;;28.30;25.99;101789.00;5024945;28;97147;-72
2022/06/17 20:02:24;;;;;;;7.72;2.03;;;;;;;28.32;26.17;101792.44;5030560;27;97100;-71
2022/06/17 20:04:52;;;;;;;11.60;2.10;;;;;;;28.16;26.09;101795.72;5030386;27;98767;-72
2022/06/17 20:07:20;;;;;;;8.35;2.72;;;;;;;28.25;26.09;101797.59;5024417;27;97663;-71
2022/06/17 20:09:46;;;;;;;12.60;2.25;;;;;;;28.12;26.63;101787.00;5028893;28;97223;-73
2022/06/17 20:12:13;;;;;;;12.95;2.58;;;;;;;28.22;26.86;101791.63;5028313;27;97550;-72
2022/06/17 20:14:42;;;;;;;24.85;3.58;;;;;;;28.00;27.48;101793.56;5034603;27;98984;-75
2022/06/17 20:17:11;;;;;;;12.05;3.03;;;;;;;28.02;27.91;101791.59;5026858;27;99163;-73
2022/06/17 20:19:38;;;;;;;15.35;3.65;;;;;;;28.11;28.22;101782.56;5028013;27;96686;-74
2022/06/17 20:22:07;;;;;;;21.73;3.35;;;;;;;27.97;28.26;101776.69;5032233;27;96860;-74
2022/06/17 20:24:38;;;;;;;11.30;3.22;;;;;;;28.03;28.39;101784.25;5032544;28;99269;-73
2022/06/17 20:27:06;;;;;;;19.25;4.65;;;;;;;27.91;29.00;101778.13;5024498;28;101837;-71
2022/06/17 20:29:34;;;;;;;35.45;5.95;;;;;;;27.80;29.19;101780.97;5032672;27;97087;-71
2022/06/17 20:32:05;;;;;;;19.73;4.30;;;;;;;28.02;29.06;101775.28;5023812;28;96858;-72
2022/06/17 20:34:32;;;;;;;15.05;2.97;;;;;;;27.97;29.24;101776.69;5033866;27;99423;-72
2022/06/17 20:36:59;;;;;;;16.00;4.25;;;;;;;28.01;29.18;101769.97;5023008;27;99096;-73
2022/06/17 20:39:29;;;;;;;11.32;3.05;;;;;;;27.83;29.57;101761.66;5028554;27;97138;-72
2022/06/17 20:42:00;;;;;;;14.38;3.80;;;;;;;27.89;29.59;101763.84;5029090;28;97287;-73
2022/06/17 20:49:58;;;;;;;30.23;5.28;;;;;;;27.82;30.00;101761.81;5030917;27;98870;-73
2022/06/17 20:50:02;;;;;;;18.13;3.60;;;;;;;27.68;29.96;101754.94;5028452;28;97035;-73
2022/06/17 20:52:33;;;;;;;30.70;5.80;;;;;;;27.73;30.44;101758.09;5033219;27;99406;-73
2022/06/17 20:55:00;;;;;;;35.45;7.05;;;;;;;27.72;30.69;101749.09;5031138;28;99405;-73
2022/06/17 21:00:20;;;;;;;28.83;4.95;;;;;;;27.64;30.55;101753.50;5023078;27;96850;-73
2022/06/17 21:02:49;;;;;;;40.47;5.95;;;;;;;27.67;30.43;101747.78;5032216;28;96909;-72
2022/06/17 21:05:20;;;;;;;15.85;4.88;;;;;;;27.51;31.16;101742.00;5026692;27;99152;-73
2022/06/17 21:07:47;;;;;;;19.02;5.03;;;;;;;27.45;31.40;101739.84;5027462;27;98051;-72
2022/06/17 21:10:18;;;;;;;17.80;3.90;;;;;;;27.25;32.01;101739.81;5030290;27;97158;-72
2022/06/17 21:12:44;;;;;;;14.90;4.05;;;;;;;27.31;32.30;101724.81;5027099;27;98802;-73
2022/06/17 21:15:15;;;;;;;12.02;3.80;;;;;;;27.23;32.00;101721.97;5029279;27;99060;-72
2022/06/17 21:17:41;;;;;;;42.53;5.18;;;;;;;27.27;32.08;101735.09;5030629;27;99620;-73
2022/06/17 21:20:13;;;;;;;33.25;5.53;;;;;;;27.26;32.10;101719.81;5031743;27;96695;-74
2022/06/17 21:22:41;;;;;;;20.75;5.75;;;;;;;27.40;31.62;101721.28;5027395;27;97258;-73
2022/06/17 21:25:14;;;;;;;27.50;5.88;;;;;;;27.38;31.31;101715.97;5026696;27;99227;-70
2022/06/17 21:27:41;;;;;;;20.38;4.68;;;;;;;27.32;30.85;101710.25;5024091;27;98340;-71
2022/06/17 21:30:13;;;;;;;26.25;5.93;;;;;;;27.09;31.37;101712.34;5022384;27;96964;-72
2022/06/17 21:32:40;;;;;;;31.52;6.50;;;;;;;27.22;31.36;101712.97;5028220;27;96750;-72
2022/06/17 21:35:07;;;;;;;25.17;5.57;;;;;;;27.40;30.63;101718.56;5017923;28;98993;-72
2022/06/17 21:37:35;;;;;;;30.42;4.93;;;;;;;27.44;30.40;101716.44;5027291;27;98916;-73
2022/06/17 21:40:02;;;;;;;21.33;5.95;;;;;;;27.21;30.46;101703.09;5027206;28;96802;-72
2022/06/17 21:42:28;;;;;;;16.17;4.90;;;;;;;27.29;30.00;101708.69;5024438;27;97182;-74
2022/06/17 21:44:55;;;;;;;19.63;5.57;;;;;;;27.32;30.08;101702.13;5022976;27;99408;-72
2022/06/17 21:47:21;;;;;;;25.50;5.90;;;;;;;27.30;29.84;101702.28;5022173;27;99378;-73
2022/06/17 21:49:48;;;;;;;13.10;4.10;;;;;;;27.38;28.90;101701.56;5022791;28;96896;-73
2022/06/17 21:52:17;;;;;;;11.82;4.15;;;;;;;27.33;28.98;101701.13;5027264;27;96792;-72
2022/06/17 21:54:46;;;;;;;18.42;4.18;;;;;;;27.27;29.19;101707.97;5026725;27;99373;-72
2022/06/17 21:57:15;;;;;;;13.98;4.70;;;;;;;27.31;28.90;101706.69;5028013;27;98669;-72
2022/06/17 21:59:45;;;;;;;29.38;4.80;;;;;;;27.23;29.66;101698.41;5020154;27;97282;-73
2022/06/17 22:02:13;;;;;;;17.98;4.20;;;;;;;27.17;29.91;101707.09;5023983;28;96903;-72
2022/06/17 22:04:40;;;;;;;13.35;4.18;;;;;;;27.08;30.17;101702.50;5025647;27;99257;-72
2022/06/17 22:07:07;;;;;;;17.17;4.22;;;;;;;26.94;30.50;101702.88;5025029;27;98799;-71
2022/06/17 22:09:35;;;;;;;40.13;8.32;;;;;;;26.83;31.18;101701.09;5023790;27;98673;-72
2022/06/17 22:12:05;;;;;;;45.35;8.30;;;;;;;26.69;31.66;101700.59;5024489;27;96889;-71
2022/06/17 22:14:34;;;;;;;30.52;6.82;;;;;;;26.76;31.57;101688.22;5022205;27;99196;-71
2022/06/17 22:17:04;;;;;;;16.48;5.00;;;;;;;26.72;31.29;101690.31;5030553;27;98816;-71
2022/06/17 22:19:31;;;;;;;22.17;6.13;;;;;;;26.91;30.38;101689.59;5018889;27;96799;-71
2022/06/17 22:21:58;;;;;;;10.30;4.60;;;;;;;26.76;30.64;101693.63;5025444;28;96823;-72
2022/06/17 22:24:29;;;;;;;9.65;4.35;;;;;;;26.89;30.62;101697.88;5023867;28;99316;-72
2022/06/17 22:26:57;;;;;;;14.65;4.18;;;;;;;27.03;29.96;101699.34;5021537;27;98807;-72
2022/06/17 22:29:28;;;;;;;14.48;5.22;;;;;;;26.99;30.48;101703.31;5026579;27;98542;-71
2022/06/17 22:31:56;;;;;;;12.48;4.40;;;;;;;26.84;30.84;101693.81;5024294;27;96781;-71
2022/06/17 22:34:24;;;;;;;11.98;4.47;;;;;;;26.90;29.73;101694.16;5023933;28;99095;-71
2022/06/17 22:36:53;;;;;;;4.95;2.40;;;;;;;27.02;29.00;101686.78;5014522;28;100895;-71
2022/06/17 22:39:20;;;;;;;7.15;3.03;;;;;;;26.87;29.12;101688.97;5029626;27;96787;-71
2022/06/17 22:41:46;;;;;;;8.10;4.07;;;;;;;27.07;29.04;101679.06;5024544;28;97101;-72
2022/06/17 22:44:14;;;;;;;10.80;4.25;;;;;;;26.93;29.20;101674.88;5024541;28;102618;-72
2022/06/17 22:46:42;;;;;;;10.70;3.80;;;;;;;26.88;29.54;101674.41;5022631;28;99459;-73
2022/06/17 22:49:13;;;;;;;10.23;3.95;;;;;;;27.02;29.59;101680.50;5019317;27;97086;-71
2022/06/17 22:51:39;;;;;;;6.18;3.17;;;;;;;27.14;29.34;101679.38;5032305;27;97001;-72
2022/06/17 22:54:09;;;;;;;5.35;2.88;;;;;;;27.16;28.75;101680.97;5024382;27;99216;-72
2022/06/17 22:56:36;;;;;;;3.15;2.40;;;;;;;27.27;28.48;101678.13;5020743;28;99905;-72
2022/06/17 22:59:02;;;;;;;3.53;2.63;;;;;;;27.21;28.52;101675.97;5031245;27;96676;-72
2022/06/17 23:01:29;;;;;;;9.57;2.88;;;;;;;27.07;28.90;101673.66;5026991;27;97101;-73
2022/06/17 23:06:43;;;;;;;4.05;2.38;;;;;;;27.15;28.81;101665.69;5022456;27;98664;-72
2022/06/17 23:09:14;;;;;;;5.55;2.40;;;;;;;27.11;28.81;101668.81;5027362;28;96855;-72
2022/06/17 23:11:41;;;;;;;4.20;2.67;;;;;;;27.19;28.77;101660.81;5030308;27;97103;-72
2022/06/17 23:14:11;;;;;;;7.53;2.30;;;;;;;27.03;28.98;101666.78;5020554;28;99055;-71
2022/06/17 23:16:38;;;;;;;4.18;2.25;;;;;;;27.01;29.06;101660.63;5032751;27;99302;-72
2022/06/17 23:21:56;;;;;;;5.38;2.47;;;;;;;26.77;29.19;101660.09;5026193;27;98719;-72
2022/06/17 23:24:22;;;;;;;4.05;2.45;;;;;;;26.97;28.98;101642.94;5031214;27;99456;-72
2022/06/17 23:26:49;;;;;;;4.65;2.10;;;;;;;26.93;28.86;101644.19;5033232;27;99181;-73
2022/06/17 23:29:15;;;;;;;2.97;2.00;;;;;;;26.72;29.24;101636.09;5030983;28;96883;-71
2022/06/17 23:31:44;;;;;;;6.22;2.28;;;;;;;26.74;29.10;101639.53;5021726;28;97284;-71
2022/06/17 23:34:17;;;;;;;2.92;1.92;;;;;;;26.80;29.26;101638.13;5030384;27;99341;-71
2022/06/17 23:36:45;;;;;;;8.57;2.50;;;;;;;26.67;29.07;101638.38;5026751;27;102706;-71
2022/06/17 23:39:15;;;;;;;4.95;2.40;;;;;;;26.75;29.27;101641.25;5034596;27;96826;-71
2022/06/17 23:41:41;;;;;;;6.95;2.90;;;;;;;26.84;29.09;101640.44;5032872;27;98455;-72
2022/06/17 23:44:09;;;;;;;8.05;2.58;;;;;;;26.69;29.74;101643.66;5037008;27;99376;-71
2022/06/17 23:46:41;;;;;;;6.78;2.20;;;;;;;26.72;29.36;101635.22;5032934;28;99272;-71
2022/06/17 23:49:12;;;;;;;4.38;2.38;;;;;;;26.67;29.30;101632.94;5032142;27;96923;-71
2022/06/17 23:51:43;;;;;;;5.22;2.40;;;;;;;26.66;29.44;101638.50;5036836;27;96899;-70
2022/06/17 23:54:23;;;;;;;10.15;2.40;;;;;;;26.54;29.64;101638.59;5035327;27;99105;-71
2022/06/17 23:56:50;;;;;;;3.45;2.10;;;;;;;26.44;29.94;101634.16;5026193;27;98455;-74
2022/06/17 23:59:16;;;;;;;8.27;2.22;;;;;;;26.42;29.53;101622.56;5036032;28;96805;-72
